Time;durP1;ratioP1;P1;durP2;ratioP2;P2;SDS_P1;SDS_P2;PMS_P1;PMS_P2;Temp;Humidity;BMP_temperature;BMP_pressure;BME280_temperature;BME280_humidity;BME280_pressure;Samples;Min_cycle;Max_cycle;Signal;HPM_P1;HPM_P2
2022/09/24 00:01:40;;;;;;;;;;;;;;;;;;5081824;28;19924;-67
2022/09/24 00:04:07;;;;;;;;;;;;;;;;;;5077897;28;19924;-67
2022/09/24 00:06:34;;;;;;;;;;;;;;;;;;5080281;28;20018;-67
2022/09/24 00:09:01;;;;;;;;;;;;;;;;;;5078220;28;20387;-66
2022/09/24 00:11:28;;;;;;;;;;;;;;;;;;5083771;28;20387;-66
2022/09/24 00:13:55;;;;;;;;;;;;;;;;;;5075124;28;19928;-66
2022/09/24 00:16:22;;;;;;;;;;;;;;;;;;5083420;28;20631;-66
2022/09/24 00:18:49;;;;;;;;;;;;;;;;;;5080775;28;20295;-67
2022/09/24 00:21:16;;;;;;;;;;;;;;;;;;5081280;28;19925;-66
2022/09/24 00:23:43;;;;;;;;;;;;;;;;;;5078915;28;20019;-66
2022/09/24 00:28:54;;;;;;;;;;;;;;;;;;5079722;28;20065;-66
2022/09/24 00:31:21;;;;;;;;;;;;;;;;;;5077724;28;19931;-67
2022/09/24 00:33:51;;;;;;;;;;;;;;;;;;5080155;28;19931;-66
2022/09/24 00:36:18;;;;;;;;;;;;;;;;;;5078718;28;20015;-66
2022/09/24 00:38:45;;;;;;;;;;;;;;;;;;5082795;28;19924;-67
2022/09/24 00:41:12;;;;;;;;;;;;;;;;;;5092236;28;19972;-66
2022/09/24 00:43:39;;;;;;;;;;;;;;;;;;5089360;28;19970;-66
2022/09/24 00:46:06;;;;;;;;;;;;;;;;;;5089432;28;19940;-66
2022/09/24 00:48:33;;;;;;;;;;;;;;;;;;5080465;28;19978;-66
2022/09/24 00:51:00;;;;;;;;;;;;;;;;;;5080139;28;19924;-66
2022/09/24 00:53:31;;;;;;;;;;;;;;;;;;5082760;28;19927;-67
2022/09/24 00:55:58;;;;;;;;;;;;;;;;;;5092353;28;19931;-66
2022/09/24 00:58:25;;;;;;;;;;;;;;;;;;5078663;28;19956;-66
2022/09/24 01:00:52;;;;;;;;;;;;;;;;;;5086046;28;20010;-66
2022/09/24 01:03:19;;;;;;;;;;;;;;;;;;5087917;28;19947;-66
2022/09/24 01:05:46;;;;;;;;;;;;;;;;;;5082041;28;20290;-69
2022/09/24 01:08:13;;;;;;;;;;;;;;;;;;5078716;28;20290;-69
2022/09/24 01:10:49;;;;;;;;;;;;;;;;;;5073399;28;19975;-67
2022/09/24 01:13:16;;;;;;;;;;;;;;;;;;5085762;28;19936;-69
2022/09/24 01:15:43;;;;;;;;;;;;;;;;;;5087855;28;19924;-69
2022/09/24 01:18:10;;;;;;;;;;;;;;;;;;5076255;28;19924;-69
2022/09/24 01:20:37;;;;;;;;;;;;;;;;;;5081954;28;19924;-70
2022/09/24 01:23:04;;;;;;;;;;;;;;;;;;5087476;28;19924;-69
2022/09/24 01:25:31;;;;;;;;;;;;;;;;;;5076666;28;19932;-70
2022/09/24 01:27:58;;;;;;;;;;;;;;;;;;5080003;28;19924;-69
2022/09/24 01:30:30;;;;;;;;;;;;;;;;;;5084086;28;19932;-67
2022/09/24 01:32:57;;;;;;;;;;;;;;;;;;5079504;28;20398;-66
2022/09/24 01:35:24;;;;;;;;;;;;;;;;;;5089613;28;20400;-69
2022/09/24 01:37:51;;;;;;;;;;;;;;;;;;5092798;28;20391;-68
2022/09/24 01:40:18;;;;;;;;;;;;;;;;;;5087152;28;19931;-68
2022/09/24 01:42:45;;;;;;;;;;;;;;;;;;5084882;28;19924;-67
2022/09/24 01:45:12;;;;;;;;;;;;;;;;;;5087407;28;19928;-67
2022/09/24 01:47:39;;;;;;;;;;;;;;;;;;5089385;28;20010;-67
2022/09/24 01:50:06;;;;;;;;;;;;;;;;;;5084891;28;20387;-67
2022/09/24 01:52:33;;;;;;;;;;;;;;;;;;5091155;28;20409;-67
2022/09/24 01:55:00;;;;;;;;;;;;;;;;;;5082684;28;20470;-68
2022/09/24 01:57:28;;;;;;;;;;;;;;;;;;5078065;28;20397;-68
2022/09/24 01:59:55;;;;;;;;;;;;;;;;;;5070656;28;19928;-68
2022/09/24 02:02:24;;;;;;;;;;;;;;;;;;5076070;28;20014;-67
2022/09/24 02:04:52;;;;;;;;;;;;;;;;;;5083519;28;20018;-67
2022/09/24 02:07:20;;;;;;;;;;;;;;;;;;5079147;28;19936;-67
2022/09/24 02:09:47;;;;;;;;;;;;;;;;;;5073474;28;20015;-68
2022/09/24 02:12:15;;;;;;;;;;;;;;;;;;5075028;28;20034;-67
2022/09/24 02:14:42;;;;;;;;;;;;;;;;;;5080430;28;19932;-68
2022/09/24 02:17:09;;;;;;;;;;;;;;;;;;5076529;28;19931;-69
2022/09/24 02:19:36;;;;;;;;;;;;;;;;;;5071872;28;19932;-68
2022/09/24 02:22:03;;;;;;;;;;;;;;;;;;5072255;28;19935;-68
2022/09/24 02:24:30;;;;;;;;;;;;;;;;;;5074303;28;20018;-69
2022/09/24 02:26:57;;;;;;;;;;;;;;;;;;5074278;28;20509;-68
2022/09/24 02:29:24;;;;;;;;;;;;;;;;;;5075878;28;20317;-66
2022/09/24 02:31:51;;;;;;;;;;;;;;;;;;5071652;28;19932;-67
2022/09/24 02:34:20;;;;;;;;;;;;;;;;;;5077110;28;19931;-67
2022/09/24 02:36:47;;;;;;;;;;;;;;;;;;5079513;28;19937;-67
2022/09/24 02:39:16;;;;;;;;;;;;;;;;;;5077083;28;19924;-66
2022/09/24 02:41:46;;;;;;;;;;;;;;;;;;5075604;28;20007;-67
2022/09/24 02:44:13;;;;;;;;;;;;;;;;;;5076342;28;20023;-67
2022/09/24 02:46:40;;;;;;;;;;;;;;;;;;5077116;28;19928;-67
2022/09/24 02:49:07;;;;;;;;;;;;;;;;;;5076957;28;20343;-67
2022/09/24 02:51:34;;;;;;;;;;;;;;;;;;5072590;28;19932;-67
2022/09/24 02:54:01;;;;;;;;;;;;;;;;;;5074401;28;19938;-67
2022/09/24 02:56:28;;;;;;;;;;;;;;;;;;5073647;28;19927;-68
2022/09/24 02:58:55;;;;;;;;;;;;;;;;;;5075969;28;20355;-68
2022/09/24 03:01:23;;;;;;;;;;;;;;;;;;5078091;28;20393;-68
2022/09/24 03:03:50;;;;;;;;;;;;;;;;;;5075786;28;20455;-68
2022/09/24 03:06:17;;;;;;;;;;;;;;;;;;5074050;28;20371;-68
2022/09/24 03:08:44;;;;;;;;;;;;;;;;;;5073511;28;19931;-68
2022/09/24 03:11:11;;;;;;;;;;;;;;;;;;5075134;28;20387;-68
2022/09/24 03:13:38;;;;;;;;;;;;;;;;;;5079487;28;19929;-68
2022/09/24 03:16:04;;;;;;;;;;;;;;;;;;5079779;28;19924;-68
2022/09/24 03:18:31;;;;;;;;;;;;;;;;;;5071341;28;19963;-67
2022/09/24 03:20:58;;;;;;;;;;;;;;;;;;5073418;28;19971;-67
2022/09/24 03:23:25;;;;;;;;;;;;;;;;;;5074727;28;19931;-67
2022/09/24 03:25:53;;;;;;;;;;;;;;;;;;5076762;28;19932;-67
2022/09/24 03:28:20;;;;;;;;;;;;;;;;;;5076978;28;20069;-69
2022/09/24 03:30:59;;;;;;;;;;;;;;;;;;5081161;28;19999;-69
2022/09/24 03:33:26;;;;;;;;;;;;;;;;;;5072319;28;19924;-69
2022/09/24 03:35:53;;;;;;;;;;;;;;;;;;5075737;28;19924;-69
2022/09/24 03:38:20;;;;;;;;;;;;;;;;;;5077236;28;19925;-69
2022/09/24 03:40:47;;;;;;;;;;;;;;;;;;5073033;28;20020;-69
2022/09/24 03:43:14;;;;;;;;;;;;;;;;;;5078967;28;19932;-69
2022/09/24 03:45:41;;;;;;;;;;;;;;;;;;5077448;28;19934;-69
2022/09/24 03:48:08;;;;;;;;;;;;;;;;;;5075201;28;19940;-69
2022/09/24 03:50:35;;;;;;;;;;;;;;;;;;5074511;28;19924;-70
2022/09/24 03:53:02;;;;;;;;;;;;;;;;;;5078067;28;19929;-69
2022/09/24 03:55:29;;;;;;;;;;;;;;;;;;5076503;28;19925;-70
2022/09/24 03:57:55;;;;;;;;;;;;;;;;;;5075768;28;19924;-70
2022/09/24 04:00:23;;;;;;;;;;;;;;;;;;5075769;28;20290;-69
2022/09/24 04:02:50;;;;;;;;;;;;;;;;;;5083329;28;20334;-69
2022/09/24 04:05:17;;;;;;;;;;;;;;;;;;5075929;28;20302;-69
2022/09/24 04:07:44;;;;;;;;;;;;;;;;;;5079140;28;20404;-70
2022/09/24 04:10:11;;;;;;;;;;;;;;;;;;5081446;28;19986;-66
2022/09/24 04:12:38;;;;;;;;;;;;;;;;;;5079910;28;20291;-67
2022/09/24 04:15:05;;;;;;;;;;;;;;;;;;5083200;28;19924;-68
2022/09/24 04:17:32;;;;;;;;;;;;;;;;;;5080406;28;19930;-67
2022/09/24 04:19:59;;;;;;;;;;;;;;;;;;5076240;28;19931;-67
2022/09/24 04:22:26;;;;;;;;;;;;;;;;;;5076814;28;19946;-67
2022/09/24 04:24:53;;;;;;;;;;;;;;;;;;5081123;28;19924;-67
2022/09/24 04:27:20;;;;;;;;;;;;;;;;;;5076955;28;19935;-67
2022/09/24 04:29:47;;;;;;;;;;;;;;;;;;5081418;28;19935;-68
2022/09/24 04:32:14;;;;;;;;;;;;;;;;;;5080866;28;19938;-68
2022/09/24 04:34:41;;;;;;;;;;;;;;;;;;5078744;28;20439;-68
2022/09/24 04:37:09;;;;;;;;;;;;;;;;;;5073052;28;19924;-67
2022/09/24 04:39:35;;;;;;;;;;;;;;;;;;5083609;28;19924;-68
2022/09/24 04:42:02;;;;;;;;;;;;;;;;;;5079448;28;19970;-68
2022/09/24 04:44:30;;;;;;;;;;;;;;;;;;5075707;28;19925;-68
2022/09/24 04:47:01;;;;;;;;;;;;;;;;;;5082064;28;19924;-68
2022/09/24 04:49:29;;;;;;;;;;;;;;;;;;5079752;28;19946;-67
2022/09/24 04:51:56;;;;;;;;;;;;;;;;;;5076075;28;19946;-68
2022/09/24 04:54:23;;;;;;;;;;;;;;;;;;5087140;28;19931;-68
2022/09/24 04:56:50;;;;;;;;;;;;;;;;;;5084335;28;19931;-67
2022/09/24 04:59:17;;;;;;;;;;;;;;;;;;5086676;28;19931;-68
2022/09/24 05:01:46;;;;;;;;;;;;;;;;;;5078430;28;19932;-67
2022/09/24 05:04:13;;;;;;;;;;;;;;;;;;5080914;28;19924;-67
2022/09/24 05:06:40;;;;;;;;;;;;;;;;;;5082370;28;20355;-67
2022/09/24 05:09:07;;;;;;;;;;;;;;;;;;5081351;28;19924;-67
2022/09/24 05:11:34;;;;;;;;;;;;;;;;;;5073925;28;19924;-67
2022/09/24 05:14:01;;;;;;;;;;;;;;;;;;5083783;28;19924;-68
2022/09/24 05:16:28;;;;;;;;;;;;;;;;;;5088117;28;20008;-68
2022/09/24 05:18:55;;;;;;;;;;;;;;;;;;5081581;28;20391;-68
2022/09/24 05:21:22;;;;;;;;;;;;;;;;;;5082838;28;19925;-68
2022/09/24 05:23:49;;;;;;;;;;;;;;;;;;5073399;28;19924;-68
2022/09/24 05:29:00;;;;;;;;;;;;;;;;;;5079211;28;19923;-68
2022/09/24 05:31:27;;;;;;;;;;;;;;;;;;5072544;28;19931;-68
2022/09/24 05:33:54;;;;;;;;;;;;;;;;;;5081703;28;20030;-67
2022/09/24 05:36:21;;;;;;;;;;;;;;;;;;5080518;28;19924;-67
2022/09/24 05:38:48;;;;;;;;;;;;;;;;;;5082487;28;19924;-66
2022/09/24 05:41:15;;;;;;;;;;;;;;;;;;5089845;28;19924;-66
2022/09/24 05:43:42;;;;;;;;;;;;;;;;;;5082791;28;19925;-67
2022/09/24 05:46:09;;;;;;;;;;;;;;;;;;5082861;28;19936;-67
2022/09/24 05:48:36;;;;;;;;;;;;;;;;;;5080349;28;19929;-68
2022/09/24 05:51:04;;;;;;;;;;;;;;;;;;5074137;28;19929;-67
2022/09/24 05:53:31;;;;;;;;;;;;;;;;;;5076120;28;20406;-67
2022/09/24 05:55:58;;;;;;;;;;;;;;;;;;5080380;28;19936;-67
2022/09/24 05:58:25;;;;;;;;;;;;;;;;;;5081520;28;19931;-67
2022/09/24 06:00:52;;;;;;;;;;;;;;;;;;5080140;28;20023;-67
2022/09/24 06:03:19;;;;;;;;;;;;;;;;;;5072095;28;19939;-66
2022/09/24 06:05:47;;;;;;;;;;;;;;;;;;5075650;28;20007;-67
2022/09/24 06:08:15;;;;;;;;;;;;;;;;;;5078663;28;20873;-67
2022/09/24 06:10:42;;;;;;;;;;;;;;;;;;5074883;28;19932;-67
2022/09/24 06:13:10;;;;;;;;;;;;;;;;;;5077721;28;19924;-67
2022/09/24 06:15:37;;;;;;;;;;;;;;;;;;5080358;28;19928;-67
2022/09/24 06:18:04;;;;;;;;;;;;;;;;;;5079442;28;19940;-66
2022/09/24 06:20:31;;;;;;;;;;;;;;;;;;5074193;28;19938;-67
2022/09/24 06:22:58;;;;;;;;;;;;;;;;;;5073224;28;20442;-67
2022/09/24 06:25:25;;;;;;;;;;;;;;;;;;5078208;28;19924;-67
2022/09/24 06:27:52;;;;;;;;;;;;;;;;;;5083444;28;20299;-68
2022/09/24 06:30:19;;;;;;;;;;;;;;;;;;5077222;28;20043;-68
2022/09/24 06:32:46;;;;;;;;;;;;;;;;;;5073996;28;20201;-67
2022/09/24 06:35:13;;;;;;;;;;;;;;;;;;5087108;28;20087;-68
2022/09/24 06:37:40;;;;;;;;;;;;;;;;;;5075811;28;20018;-67
2022/09/24 06:40:07;;;;;;;;;;;;;;;;;;5077692;28;20012;-68
2022/09/24 06:42:34;;;;;;;;;;;;;;;;;;5076778;28;20069;-67
2022/09/24 06:45:01;;;;;;;;;;;;;;;;;;5076749;28;20395;-67
2022/09/24 06:47:28;;;;;;;;;;;;;;;;;;5075955;28;20765;-67
2022/09/24 06:49:55;;;;;;;;;;;;;;;;;;5086620;28;20014;-67
2022/09/24 06:52:23;;;;;;;;;;;;;;;;;;5077988;28;19999;-68
2022/09/24 06:54:50;;;;;;;;;;;;;;;;;;5081241;28;20385;-68
2022/09/24 06:57:17;;;;;;;;;;;;;;;;;;5078718;28;19932;-69
2022/09/24 06:59:44;;;;;;;;;;;;;;;;;;5086564;28;20028;-74
2022/09/24 07:02:11;;;;;;;;;;;;;;;;;;5088101;28;20015;-69
2022/09/24 07:04:38;;;;;;;;;;;;;;;;;;5083697;28;20023;-68
2022/09/24 07:09:50;;;;;;;;;;;;;;;;;;5074363;28;19919;-69
2022/09/24 07:12:17;;;;;;;;;;;;;;;;;;5077007;28;19970;-69
2022/09/24 07:14:44;;;;;;;;;;;;;;;;;;5075991;28;20024;-68
2022/09/24 07:17:11;;;;;;;;;;;;;;;;;;5077257;28;19956;-69
2022/09/24 07:19:38;;;;;;;;;;;;;;;;;;5080603;28;20488;-69
2022/09/24 07:22:05;;;;;;;;;;;;;;;;;;5077602;28;19986;-69
2022/09/24 07:24:32;;;;;;;;;;;;;;;;;;5079532;28;19943;-69
2022/09/24 07:26:59;;;;;;;;;;;;;;;;;;5066515;28;20019;-69
2022/09/24 07:29:26;;;;;;;;;;;;;;;;;;5081106;28;20011;-69
2022/09/24 07:31:53;;;;;;;;;;;;;;;;;;5077949;28;19974;-69
2022/09/24 07:34:20;;;;;;;;;;;;;;;;;;5083098;28;19955;-69
2022/09/24 07:36:47;;;;;;;;;;;;;;;;;;5081629;28;19924;-69
2022/09/24 07:39:14;;;;;;;;;;;;;;;;;;5070772;28;20015;-69
2022/09/24 07:41:41;;;;;;;;;;;;;;;;;;5077780;28;19935;-71
2022/09/24 07:44:08;;;;;;;;;;;;;;;;;;5066451;28;19964;-70
2022/09/24 07:46:35;;;;;;;;;;;;;;;;;;5063214;28;20011;-69
2022/09/24 07:49:02;;;;;;;;;;;;;;;;;;5058013;28;19932;-70
2022/09/24 07:51:29;;;;;;;;;;;;;;;;;;5063915;28;20351;-71
2022/09/24 07:53:57;;;;;;;;;;;;;;;;;;5068494;28;19932;-70
2022/09/24 07:56:24;;;;;;;;;;;;;;;;;;5068560;28;20442;-70
2022/09/24 07:58:51;;;;;;;;;;;;;;;;;;5071051;28;20649;-70
2022/09/24 08:01:18;;;;;;;;;;;;;;;;;;5076187;28;19967;-71
2022/09/24 08:03:45;;;;;;;;;;;;;;;;;;5074006;28;19932;-70
2022/09/24 08:06:12;;;;;;;;;;;;;;;;;;5076689;28;19993;-68
2022/09/24 08:08:39;;;;;;;;;;;;;;;;;;5076751;28;19978;-71
2022/09/24 08:11:06;;;;;;;;;;;;;;;;;;5075797;28;20038;-70
2022/09/24 08:13:33;;;;;;;;;;;;;;;;;;5079129;28;20015;-71
2022/09/24 08:16:00;;;;;;;;;;;;;;;;;;5077893;28;19932;-70
2022/09/24 08:18:27;;;;;;;;;;;;;;;;;;5077291;28;19977;-70
2022/09/24 08:20:54;;;;;;;;;;;;;;;;;;5080525;28;19979;-70
2022/09/24 08:23:21;;;;;;;;;;;;;;;;;;5085678;28;19932;-70
2022/09/24 08:25:48;;;;;;;;;;;;;;;;;;5077378;28;19948;-69
2022/09/24 08:28:18;;;;;;;;;;;;;;;;;;5076232;28;19925;-69
2022/09/24 08:30:45;;;;;;;;;;;;;;;;;;5072179;28;19924;-69
2022/09/24 08:33:12;;;;;;;;;;;;;;;;;;5077096;28;20406;-69
2022/09/24 08:35:39;;;;;;;;;;;;;;;;;;5083330;28;20361;-69
2022/09/24 08:38:06;;;;;;;;;;;;;;;;;;5075146;28;19971;-69
2022/09/24 08:40:33;;;;;;;;;;;;;;;;;;5084844;28;19931;-69
2022/09/24 08:43:00;;;;;;;;;;;;;;;;;;5078167;28;19924;-70
2022/09/24 08:48:12;;;;;;;;;;;;;;;;;;5077152;28;20037;-69
2022/09/24 08:50:39;;;;;;;;;;;;;;;;;;5075054;28;19932;-69
2022/09/24 08:53:06;;;;;;;;;;;;;;;;;;5069324;28;20365;-69
2022/09/24 08:55:33;;;;;;;;;;;;;;;;;;5081658;28;19924;-69
2022/09/24 08:58:00;;;;;;;;;;;;;;;;;;5077265;28;20036;-70
2022/09/24 09:00:28;;;;;;;;;;;;;;;;;;5076155;28;19936;-71
2022/09/24 09:02:55;;;;;;;;;;;;;;;;;;5081615;28;20383;-71
2022/09/24 09:05:26;;;;;;;;;;;;;;;;;;5080334;28;20035;-70
2022/09/24 09:07:53;;;;;;;;;;;;;;;;;;5088114;28;20280;-68
2022/09/24 09:10:26;;;;;;;;;;;;;;;;;;5075374;28;19963;-68
2022/09/24 09:12:53;;;;;;;;;;;;;;;;;;5077244;28;19925;-70
2022/09/24 09:15:20;;;;;;;;;;;;;;;;;;5080470;28;20012;-68
2022/09/24 09:17:47;;;;;;;;;;;;;;;;;;5076197;28;20058;-69
2022/09/24 09:20:14;;;;;;;;;;;;;;;;;;5074845;28;19924;-68
2022/09/24 09:22:41;;;;;;;;;;;;;;;;;;5080309;28;20029;-69
2022/09/24 09:25:08;;;;;;;;;;;;;;;;;;5074586;28;19924;-69
2022/09/24 09:27:35;;;;;;;;;;;;;;;;;;5078903;28;20645;-69
2022/09/24 09:30:02;;;;;;;;;;;;;;;;;;5079639;28;19928;-69
2022/09/24 09:32:29;;;;;;;;;;;;;;;;;;5078600;28;19933;-69
2022/09/24 09:34:57;;;;;;;;;;;;;;;;;;5080778;28;19924;-69
2022/09/24 09:37:24;;;;;;;;;;;;;;;;;;5078129;28;20323;-70
2022/09/24 09:39:51;;;;;;;;;;;;;;;;;;5078374;28;20259;-70
2022/09/24 09:42:19;;;;;;;;;;;;;;;;;;5074268;28;20027;-68
2022/09/24 09:44:46;;;;;;;;;;;;;;;;;;5081579;28;20533;-69
2022/09/24 09:47:14;;;;;;;;;;;;;;;;;;5080446;28;20023;-70
2022/09/24 09:49:41;;;;;;;;;;;;;;;;;;5076415;28;19935;-70
2022/09/24 09:52:08;;;;;;;;;;;;;;;;;;5080187;28;20047;-71
2022/09/24 09:54:35;;;;;;;;;;;;;;;;;;5077305;28;19978;-69
2022/09/24 09:57:02;;;;;;;;;;;;;;;;;;5089996;28;20011;-67
2022/09/24 09:59:29;;;;;;;;;;;;;;;;;;5079979;28;20015;-70
2022/09/24 10:01:56;;;;;;;;;;;;;;;;;;5074108;28;19932;-70
2022/09/24 10:04:23;;;;;;;;;;;;;;;;;;5082103;28;19947;-69
2022/09/24 10:06:50;;;;;;;;;;;;;;;;;;5074390;28;20014;-69
2022/09/24 10:09:18;;;;;;;;;;;;;;;;;;5072900;28;19936;-68
2022/09/24 10:11:45;;;;;;;;;;;;;;;;;;5078771;28;19932;-69
2022/09/24 10:14:12;;;;;;;;;;;;;;;;;;5074275;28;19932;-69
2022/09/24 10:16:39;;;;;;;;;;;;;;;;;;5077467;28;20379;-69
2022/09/24 10:19:06;;;;;;;;;;;;;;;;;;5080243;28;20348;-70
2022/09/24 10:21:34;;;;;;;;;;;;;;;;;;5075342;28;19932;-69
2022/09/24 10:24:01;;;;;;;;;;;;;;;;;;5079722;28;19947;-70
2022/09/24 10:26:28;;;;;;;;;;;;;;;;;;5078194;28;19924;-69
2022/09/24 10:31:54;;;;;;;;;;;;;;;;;;4995339;28;19933;-69
2022/09/24 10:34:21;;;;;;;;;;;;;;;;;;4999510;28;20005;-70
2022/09/24 10:36:48;;;;;;;;;;;;;;;;;;5032654;28;20561;-70
2022/09/24 10:39:15;;;;;;;;;;;;;;;;;;5075634;28;19924;-70
2022/09/24 10:41:42;;;;;;;;;;;;;;;;;;5075755;28;20087;-69
2022/09/24 10:44:10;;;;;;;;;;;;;;;;;;5083934;28;20010;-71
2022/09/24 10:46:37;;;;;;;;;;;;;;;;;;5087292;28;19936;-70
2022/09/24 10:49:04;;;;;;;;;;;;;;;;;;5086612;28;19970;-70
2022/09/24 10:51:31;;;;;;;;;;;;;;;;;;5090516;28;20015;-69
2022/09/24 10:53:58;;;;;;;;;;;;;;;;;;5090121;28;20027;-70
2022/09/24 10:56:25;;;;;;;;;;;;;;;;;;5082655;28;20425;-70
2022/09/24 10:58:52;;;;;;;;;;;;;;;;;;5080303;28;20007;-71
2022/09/24 11:01:19;;;;;;;;;;;;;;;;;;5070765;28;20402;-69
2022/09/24 11:03:46;;;;;;;;;;;;;;;;;;5075577;28;20455;-70
2022/09/24 11:06:13;;;;;;;;;;;;;;;;;;5084001;28;20011;-70
2022/09/24 11:08:40;;;;;;;;;;;;;;;;;;5076015;28;20043;-69
2022/09/24 11:11:08;;;;;;;;;;;;;;;;;;5086353;28;19924;-69
2022/09/24 11:13:36;;;;;;;;;;;;;;;;;;5079491;28;19925;-69
2022/09/24 11:16:02;;;;;;;;;;;;;;;;;;5072801;28;19928;-69
2022/09/24 11:18:30;;;;;;;;;;;;;;;;;;5070348;28;20015;-69
2022/09/24 11:20:57;;;;;;;;;;;;;;;;;;5086566;28;20440;-69
2022/09/24 11:23:24;;;;;;;;;;;;;;;;;;5085394;28;19982;-68
2022/09/24 11:25:51;;;;;;;;;;;;;;;;;;5073951;28;20010;-67
2022/09/24 11:28:18;;;;;;;;;;;;;;;;;;5076813;28;19935;-69
2022/09/24 11:30:46;;;;;;;;;;;;;;;;;;5077111;28;21941;-69
2022/09/24 11:33:13;;;;;;;;;;;;;;;;;;5076711;28;19982;-69
2022/09/24 11:35:40;;;;;;;;;;;;;;;;;;5075323;28;20296;-67
2022/09/24 11:38:07;;;;;;;;;;;;;;;;;;5079556;28;19964;-67
2022/09/24 11:40:35;;;;;;;;;;;;;;;;;;5088255;28;19948;-66
2022/09/24 11:43:01;;;;;;;;;;;;;;;;;;5084943;28;19932;-67
2022/09/24 11:45:28;;;;;;;;;;;;;;;;;;5076820;28;19938;-66
2022/09/24 11:47:56;;;;;;;;;;;;;;;;;;5081586;28;20020;-68
2022/09/24 11:50:22;;;;;;;;;;;;;;;;;;5077560;28;19933;-68
2022/09/24 11:52:49;;;;;;;;;;;;;;;;;;5081711;28;20031;-69
2022/09/24 11:55:16;;;;;;;;;;;;;;;;;;5072514;28;19978;-68
2022/09/24 11:57:43;;;;;;;;;;;;;;;;;;5080350;28;19924;-68
2022/09/24 12:00:11;;;;;;;;;;;;;;;;;;5083623;28;20433;-68
2022/09/24 12:02:38;;;;;;;;;;;;;;;;;;5086754;28;19955;-68
2022/09/24 12:05:05;;;;;;;;;;;;;;;;;;5084899;28;20372;-68
2022/09/24 12:07:32;;;;;;;;;;;;;;;;;;5078584;28;19931;-68
2022/09/24 12:09:59;;;;;;;;;;;;;;;;;;5075892;28;19929;-68
2022/09/24 12:12:26;;;;;;;;;;;;;;;;;;5083735;28;19963;-67
2022/09/24 12:14:53;;;;;;;;;;;;;;;;;;5085774;28;20004;-66
2022/09/24 12:17:20;;;;;;;;;;;;;;;;;;5082026;28;19924;-69
2022/09/24 12:19:47;;;;;;;;;;;;;;;;;;5089602;28;20443;-68
2022/09/24 12:22:15;;;;;;;;;;;;;;;;;;5084717;28;19970;-68
2022/09/24 12:24:42;;;;;;;;;;;;;;;;;;5090160;28;20422;-68
2022/09/24 12:27:09;;;;;;;;;;;;;;;;;;5079454;28;19947;-69
2022/09/24 12:35:06;;;;;;;;;;;;;;;;;;5081308;28;20004;-69
2022/09/24 12:37:33;;;;;;;;;;;;;;;;;;5081671;28;19932;-70
2022/09/24 12:39:59;;;;;;;;;;;;;;;;;;5081777;28;20466;-68
2022/09/24 12:42:26;;;;;;;;;;;;;;;;;;5084757;28;20014;-68
2022/09/24 12:44:53;;;;;;;;;;;;;;;;;;5075222;28;19967;-68
2022/09/24 12:47:20;;;;;;;;;;;;;;;;;;5083989;28;19979;-68
2022/09/24 12:49:47;;;;;;;;;;;;;;;;;;5086498;28;20003;-69
2022/09/24 12:52:14;;;;;;;;;;;;;;;;;;5080007;28;20003;-69
2022/09/24 12:54:41;;;;;;;;;;;;;;;;;;5081082;28;20031;-69
2022/09/24 12:57:09;;;;;;;;;;;;;;;;;;5079491;28;19975;-68
2022/09/24 12:59:36;;;;;;;;;;;;;;;;;;5085098;28;19924;-69
2022/09/24 13:02:03;;;;;;;;;;;;;;;;;;5077093;28;19936;-72
2022/09/24 13:04:30;;;;;;;;;;;;;;;;;;5087103;28;20289;-70
2022/09/24 13:06:57;;;;;;;;;;;;;;;;;;5089923;28;19924;-72
2022/09/24 13:09:24;;;;;;;;;;;;;;;;;;5087505;28;19924;-72
2022/09/24 13:11:51;;;;;;;;;;;;;;;;;;5090255;28;20405;-70
2022/09/24 13:14:21;;;;;;;;;;;;;;;;;;5081928;28;19928;-71
2022/09/24 13:16:48;;;;;;;;;;;;;;;;;;5072934;28;19998;-71
2022/09/24 13:19:16;;;;;;;;;;;;;;;;;;5085937;28;19924;-68
2022/09/24 13:21:43;;;;;;;;;;;;;;;;;;5087422;28;20402;-70
2022/09/24 13:24:10;;;;;;;;;;;;;;;;;;5084052;28;20009;-69
2022/09/24 13:26:37;;;;;;;;;;;;;;;;;;5074052;28;19963;-68
2022/09/24 13:29:04;;;;;;;;;;;;;;;;;;5076744;28;19932;-69
2022/09/24 13:31:31;;;;;;;;;;;;;;;;;;5073498;28;19931;-69
2022/09/24 13:33:58;;;;;;;;;;;;;;;;;;5070471;28;19924;-71
2022/09/24 13:36:25;;;;;;;;;;;;;;;;;;5072004;28;19930;-70
2022/09/24 13:38:53;;;;;;;;;;;;;;;;;;5070414;28;19928;-71
2022/09/24 13:41:20;;;;;;;;;;;;;;;;;;5067462;28;19935;-71
2022/09/24 13:43:47;;;;;;;;;;;;;;;;;;5069380;28;19977;-70
2022/09/24 13:46:14;;;;;;;;;;;;;;;;;;5070903;28;19932;-70
2022/09/24 13:48:41;;;;;;;;;;;;;;;;;;5064352;28;19967;-71
2022/09/24 13:51:08;;;;;;;;;;;;;;;;;;5067853;28;19924;-70
2022/09/24 13:53:35;;;;;;;;;;;;;;;;;;5071675;28;19959;-71
2022/09/24 13:56:02;;;;;;;;;;;;;;;;;;5084246;28;20399;-72
2022/09/24 13:58:29;;;;;;;;;;;;;;;;;;5067095;28;19932;-71
2022/09/24 14:00:57;;;;;;;;;;;;;;;;;;5066619;28;19967;-70
2022/09/24 14:03:24;;;;;;;;;;;;;;;;;;5070792;28;20023;-70
2022/09/24 14:05:51;;;;;;;;;;;;;;;;;;5067205;28;20015;-70
2022/09/24 14:08:18;;;;;;;;;;;;;;;;;;5064386;28;20429;-70
2022/09/24 14:10:47;;;;;;;;;;;;;;;;;;5066533;28;20032;-70
2022/09/24 14:13:16;;;;;;;;;;;;;;;;;;5066164;28;19928;-71
2022/09/24 14:15:43;;;;;;;;;;;;;;;;;;5068879;28;20509;-69
2022/09/24 14:18:10;;;;;;;;;;;;;;;;;;5065571;28;21883;-70
2022/09/24 14:20:37;;;;;;;;;;;;;;;;;;5065522;28;19960;-70
2022/09/24 14:23:04;;;;;;;;;;;;;;;;;;5066863;28;20015;-70
2022/09/24 14:25:31;;;;;;;;;;;;;;;;;;5066565;28;19932;-70
2022/09/24 14:27:58;;;;;;;;;;;;;;;;;;5065697;28;19924;-71
2022/09/24 14:30:25;;;;;;;;;;;;;;;;;;5069080;28;20018;-71
2022/09/24 14:32:52;;;;;;;;;;;;;;;;;;5060888;28;19935;-70
2022/09/24 14:35:19;;;;;;;;;;;;;;;;;;5067220;28;19967;-71
2022/09/24 14:37:46;;;;;;;;;;;;;;;;;;5067983;28;19924;-71
2022/09/24 14:40:13;;;;;;;;;;;;;;;;;;5067855;28;20394;-71
2022/09/24 14:42:40;;;;;;;;;;;;;;;;;;5066622;28;19928;-72
2022/09/24 14:45:07;;;;;;;;;;;;;;;;;;5067875;28;20560;-71
2022/09/24 14:47:34;;;;;;;;;;;;;;;;;;5066708;28;19960;-72
2022/09/24 14:50:02;;;;;;;;;;;;;;;;;;5066731;28;20365;-72
2022/09/24 14:52:30;;;;;;;;;;;;;;;;;;5065949;28;20297;-70
2022/09/24 14:54:57;;;;;;;;;;;;;;;;;;5068131;28;19972;-71
2022/09/24 14:57:24;;;;;;;;;;;;;;;;;;5064511;28;22302;-70
2022/09/24 14:59:51;;;;;;;;;;;;;;;;;;5065325;28;19932;-71
2022/09/24 15:02:18;;;;;;;;;;;;;;;;;;5063610;28;19940;-70
2022/09/24 15:04:45;;;;;;;;;;;;;;;;;;5070926;28;20014;-70
2022/09/24 15:07:17;;;;;;;;;;;;;;;;;;5064624;28;19932;-72
2022/09/24 15:09:45;;;;;;;;;;;;;;;;;;5065485;28;21705;-71
2022/09/24 15:12:18;;;;;;;;;;;;;;;;;;5066198;28;19940;-71
2022/09/24 15:14:45;;;;;;;;;;;;;;;;;;5065507;28;19932;-71
2022/09/24 15:17:12;;;;;;;;;;;;;;;;;;5063083;28;19928;-71
2022/09/24 15:19:42;;;;;;;;;;;;;;;;;;5066106;28;20506;-73
2022/09/24 15:22:10;;;;;;;;;;;;;;;;;;5067315;28;19932;-75
2022/09/24 15:24:44;;;;;;;;;;;;;;;;;;5063286;28;20391;-74
2022/09/24 15:27:12;;;;;;;;;;;;;;;;;;5067206;28;20288;-71
2022/09/24 15:29:39;;;;;;;;;;;;;;;;;;5071171;28;19924;-70
2022/09/24 15:32:06;;;;;;;;;;;;;;;;;;5086748;28;19924;-71
2022/09/24 15:34:33;;;;;;;;;;;;;;;;;;5086433;28;19924;-72
2022/09/24 15:37:01;;;;;;;;;;;;;;;;;;5080939;28;19931;-71
2022/09/24 15:39:28;;;;;;;;;;;;;;;;;;5094655;28;19940;-71
2022/09/24 15:41:55;;;;;;;;;;;;;;;;;;5089705;28;19924;-71
2022/09/24 15:44:23;;;;;;;;;;;;;;;;;;5088138;28;19924;-72
2022/09/24 15:46:50;;;;;;;;;;;;;;;;;;5091722;28;19955;-72
2022/09/24 15:49:20;;;;;;;;;;;;;;;;;;5093751;28;19930;-72
2022/09/24 15:51:47;;;;;;;;;;;;;;;;;;5094709;28;20301;-72
2022/09/24 15:54:14;;;;;;;;;;;;;;;;;;5088989;28;20306;-72
2022/09/24 15:56:43;;;;;;;;;;;;;;;;;;5083997;28;19924;-72
2022/09/24 15:59:10;;;;;;;;;;;;;;;;;;5088652;28;20354;-72
2022/09/24 16:01:37;;;;;;;;;;;;;;;;;;5093625;28;19934;-72
2022/09/24 16:04:04;;;;;;;;;;;;;;;;;;5091648;28;19932;-73
2022/09/24 16:06:31;;;;;;;;;;;;;;;;;;5085368;28;20556;-72
2022/09/24 16:08:58;;;;;;;;;;;;;;;;;;5073900;28;19928;-72
2022/09/24 16:11:26;;;;;;;;;;;;;;;;;;5078133;28;19994;-74
2022/09/24 16:13:53;;;;;;;;;;;;;;;;;;5081856;28;19928;-73
2022/09/24 16:16:20;;;;;;;;;;;;;;;;;;5087016;28;19932;-73
2022/09/24 16:18:47;;;;;;;;;;;;;;;;;;5083676;28;20003;-74
2022/09/24 16:21:14;;;;;;;;;;;;;;;;;;5090249;28;19924;-73
2022/09/24 16:23:41;;;;;;;;;;;;;;;;;;5082598;28;19928;-72
2022/09/24 16:26:08;;;;;;;;;;;;;;;;;;5077667;28;19947;-70
2022/09/24 16:28:35;;;;;;;;;;;;;;;;;;5078808;28;19993;-73
2022/09/24 16:31:02;;;;;;;;;;;;;;;;;;5086211;28;19931;-73
2022/09/24 16:33:29;;;;;;;;;;;;;;;;;;5089363;28;20023;-73
2022/09/24 16:35:56;;;;;;;;;;;;;;;;;;5086496;28;20019;-73
2022/09/24 16:38:23;;;;;;;;;;;;;;;;;;5078995;28;20454;-74
2022/09/24 16:40:50;;;;;;;;;;;;;;;;;;5089981;28;19968;-72
2022/09/24 16:43:17;;;;;;;;;;;;;;;;;;5089186;28;19946;-73
2022/09/24 16:45:44;;;;;;;;;;;;;;;;;;5089807;28;19927;-73
2022/09/24 16:48:12;;;;;;;;;;;;;;;;;;5079635;28;19924;-72
2022/09/24 16:50:39;;;;;;;;;;;;;;;;;;5093468;28;19978;-73
2022/09/24 16:53:06;;;;;;;;;;;;;;;;;;5082670;28;19928;-73
2022/09/24 16:55:33;;;;;;;;;;;;;;;;;;5077214;28;19947;-72
2022/09/24 16:58:00;;;;;;;;;;;;;;;;;;5085046;28;19928;-72
2022/09/24 17:00:27;;;;;;;;;;;;;;;;;;5076075;28;20039;-72
2022/09/24 17:02:54;;;;;;;;;;;;;;;;;;5090581;28;19924;-72
2022/09/24 17:05:21;;;;;;;;;;;;;;;;;;5079627;28;19924;-73